sensor_id;sensor_type;location;lat;lon;timestamp;temperature;humidity
20284;DHT22;10301;50.832;4.080;2022-08-05T00:00:15;21.90;99.90
20284;DHT22;10301;50.832;4.080;2022-08-05T00:02:41;22.00;99.90
20284;DHT22;10301;50.832;4.080;2022-08-05T00:05:07;22.00;99.90
20284;DHT22;10301;50.832;4.080;2022-08-05T00:07:32;22.00;99.90
20284;DHT22;10301;50.832;4.080;2022-08-05T00:09:58;21.80;99.90
20284;DHT22;10301;50.832;4.080;2022-08-05T00:12:24;21.70;99.90
20284;DHT22;10301;50.832;4.080;2022-08-05T00:14:49;21.70;99.90
20284;DHT22;10301;50.832;4.080;2022-08-05T00:17:15;21.80;99.90
20284;DHT22;10301;50.832;4.080;2022-08-05T00:19:40;21.80;99.90
20284;DHT22;10301;50.832;4.080;2022-08-05T00:22:06;21.80;99.90
20284;DHT22;10301;50.832;4.080;2022-08-05T00:24:32;22.00;99.90
20284;DHT22;10301;50.832;4.080;2022-08-05T00:26:58;22.10;99.90
20284;DHT22;10301;50.832;4.080;2022-08-05T00:29:24;22.20;99.90
20284;DHT22;10301;50.832;4.080;2022-08-05T00:31:50;22.20;99.90
20284;DHT22;10301;50.832;4.080;2022-08-05T00:34:16;22.20;99.90
20284;DHT22;10301;50.832;4.080;2022-08-05T00:36:42;22.30;99.90
20284;DHT22;10301;50.832;4.080;2022-08-05T00:39:07;22.50;99.90
20284;DHT22;10301;50.832;4.080;2022-08-05T00:41:34;22.50;99.90
20284;DHT22;10301;50.832;4.080;2022-08-05T00:44:00;22.60;99.90
20284;DHT22;10301;50.832;4.080;2022-08-05T00:46:26;22.50;99.90
20284;DHT22;10301;50.832;4.080;2022-08-05T00:48:52;22.20;99.90
20284;DHT22;10301;50.832;4.080;2022-08-05T00:51:19;22.10;99.90
20284;DHT22;10301;50.832;4.080;2022-08-05T00:53:45;21.70;99.90
20284;DHT22;10301;50.832;4.080;2022-08-05T00:56:12;21.50;99.90
20284;DHT22;10301;50.832;4.080;2022-08-05T00:58:39;21.50;99.90
20284;DHT22;10301;50.832;4.080;2022-08-05T01:01:04;21.10;99.90
20284;DHT22;10301;50.832;4.080;2022-08-05T01:03:30;21.10;99.90
20284;DHT22;10301;50.832;4.080;2022-08-05T01:05:56;21.20;99.90
20284;DHT22;10301;50.832;4.080;2022-08-05T01:08:22;21.00;99.90
20284;DHT22;10301;50.832;4.080;2022-08-05T01:11:23;20.90;99.90
20284;DHT22;10301;50.832;4.080;2022-08-05T01:30:23;20.60;99.90
20284;DHT22;10301;50.832;4.080;2022-08-05T01:32:53;20.70;99.90
20284;DHT22;10301;50.832;4.080;2022-08-05T01:35:26;20.80;99.90
20284;DHT22;10301;50.832;4.080;2022-08-05T01:37:54;21.00;99.90
20284;DHT22;10301;50.832;4.080;2022-08-05T01:40:23;21.10;99.90
20284;DHT22;10301;50.832;4.080;2022-08-05T01:42:52;21.30;99.90
20284;DHT22;10301;50.832;4.080;2022-08-05T01:45:19;21.30;99.90
20284;DHT22;10301;50.832;4.080;2022-08-05T01:47:48;21.30;99.90
20284;DHT22;10301;50.832;4.080;2022-08-05T01:50:21;21.30;99.90
20284;DHT22;10301;50.832;4.080;2022-08-05T01:52:49;21.50;99.90
20284;DHT22;10301;50.832;4.080;2022-08-05T01:55:19;21.60;99.90
20284;DHT22;10301;50.832;4.080;2022-08-05T01:57:48;21.70;99.90
20284;DHT22;10301;50.832;4.080;2022-08-05T02:00:15;21.80;99.90
20284;DHT22;10301;50.832;4.080;2022-08-05T02:02:44;21.90;99.90
20284;DHT22;10301;50.832;4.080;2022-08-05T02:05:13;21.90;99.90
20284;DHT22;10301;50.832;4.080;2022-08-05T02:07:40;21.90;99.90
20284;DHT22;10301;50.832;4.080;2022-08-05T02:10:08;21.90;99.90
20284;DHT22;10301;50.832;4.080;2022-08-05T02:12:53;21.90;99.90
20284;DHT22;10301;50.832;4.080;2022-08-05T02:15:31;22.00;99.90
20284;DHT22;10301;50.832;4.080;2022-08-05T02:18:24;22.10;99.90
20284;DHT22;10301;50.832;4.080;2022-08-05T02:21:01;22.10;99.90
20284;DHT22;10301;50.832;4.080;2022-08-05T02:23:30;22.00;99.90
20284;DHT22;10301;50.832;4.080;2022-08-05T02:25:59;22.00;99.90
20284;DHT22;10301;50.832;4.080;2022-08-05T02:28:28;21.90;99.90
20284;DHT22;10301;50.832;4.080;2022-08-05T02:31:06;21.90;99.90
20284;DHT22;10301;50.832;4.080;2022-08-05T02:33:35;21.90;99.90
20284;DHT22;10301;50.832;4.080;2022-08-05T02:36:02;22.00;99.90
20284;DHT22;10301;50.832;4.080;2022-08-05T02:38:29;21.50;99.90
20284;DHT22;10301;50.832;4.080;2022-08-05T02:40:57;21.40;99.90
20284;DHT22;10301;50.832;4.080;2022-08-05T02:43:23;21.30;99.90
20284;DHT22;10301;50.832;4.080;2022-08-05T02:45:50;21.50;99.90
20284;DHT22;10301;50.832;4.080;2022-08-05T02:48:18;21.50;99.90
20284;DHT22;10301;50.832;4.080;2022-08-05T02:50:46;21.50;99.90
20284;DHT22;10301;50.832;4.080;2022-08-05T02:53:15;21.50;99.90
20284;DHT22;10301;50.832;4.080;2022-08-05T02:55:43;21.50;99.90
20284;DHT22;10301;50.832;4.080;2022-08-05T02:58:11;21.20;99.90
20284;DHT22;10301;50.832;4.080;2022-08-05T03:00:37;21.20;99.90
20284;DHT22;10301;50.832;4.080;2022-08-05T03:03:04;21.20;99.90
20284;DHT22;10301;50.832;4.080;2022-08-05T03:05:30;21.20;99.90
20284;DHT22;10301;50.832;4.080;2022-08-05T03:07:56;21.00;99.90
20284;DHT22;10301;50.832;4.080;2022-08-05T03:10:22;21.10;99.90
20284;DHT22;10301;50.832;4.080;2022-08-05T03:12:49;21.10;99.90
20284;DHT22;10301;50.832;4.080;2022-08-05T03:15:15;21.10;99.90
20284;DHT22;10301;50.832;4.080;2022-08-05T03:17:41;21.00;99.90
20284;DHT22;10301;50.832;4.080;2022-08-05T03:20:07;21.00;99.90
20284;DHT22;10301;50.832;4.080;2022-08-05T03:22:33;20.90;99.90
20284;DHT22;10301;50.832;4.080;2022-08-05T03:24:59;21.10;99.90
20284;DHT22;10301;50.832;4.080;2022-08-05T03:27:25;20.90;99.90
20284;DHT22;10301;50.832;4.080;2022-08-05T03:29:51;20.90;99.90
20284;DHT22;10301;50.832;4.080;2022-08-05T03:32:17;21.00;99.90
20284;DHT22;10301;50.832;4.080;2022-08-05T03:34:44;20.90;99.90
20284;DHT22;10301;50.832;4.080;2022-08-05T03:37:11;20.90;99.90
20284;DHT22;10301;50.832;4.080;2022-08-05T03:39:37;20.70;99.90
20284;DHT22;10301;50.832;4.080;2022-08-05T03:42:03;20.60;99.90
20284;DHT22;10301;50.832;4.080;2022-08-05T03:44:29;20.70;99.90
20284;DHT22;10301;50.832;4.080;2022-08-05T03:46:54;20.70;99.90
20284;DHT22;10301;50.832;4.080;2022-08-05T03:49:20;20.80;99.90
20284;DHT22;10301;50.832;4.080;2022-08-05T03:52:00;20.70;99.90
20284;DHT22;10301;50.832;4.080;2022-08-05T03:54:51;20.70;99.90
20284;DHT22;10301;50.832;4.080;2022-08-05T03:57:22;20.80;99.90
20284;DHT22;10301;50.832;4.080;2022-08-05T03:59:55;20.80;99.90
20284;DHT22;10301;50.832;4.080;2022-08-05T04:02:25;20.80;99.90
20284;DHT22;10301;50.832;4.080;2022-08-05T04:04:53;20.60;99.90
20284;DHT22;10301;50.832;4.080;2022-08-05T04:07:19;20.40;99.90
20284;DHT22;10301;50.832;4.080;2022-08-05T04:09:45;20.60;99.90
20284;DHT22;10301;50.832;4.080;2022-08-05T04:12:11;20.70;99.90
20284;DHT22;10301;50.832;4.080;2022-08-05T04:14:37;20.60;99.90
20284;DHT22;10301;50.832;4.080;2022-08-05T04:17:03;20.40;99.90
20284;DHT22;10301;50.832;4.080;2022-08-05T04:19:29;20.40;99.90
20284;DHT22;10301;50.832;4.080;2022-08-05T04:21:54;20.50;99.90
20284;DHT22;10301;50.832;4.080;2022-08-05T04:24:20;20.60;99.90
20284;DHT22;10301;50.832;4.080;2022-08-05T04:26:46;20.60;99.90
20284;DHT22;10301;50.832;4.080;2022-08-05T04:29:12;20.30;99.90
20284;DHT22;10301;50.832;4.080;2022-08-05T04:31:37;20.40;99.90
20284;DHT22;10301;50.832;4.080;2022-08-05T04:34:03;20.50;99.90
20284;DHT22;10301;50.832;4.080;2022-08-05T04:36:28;20.60;99.90
20284;DHT22;10301;50.832;4.080;2022-08-05T04:38:54;20.70;99.90
20284;DHT22;10301;50.832;4.080;2022-08-05T04:41:20;20.60;99.90
20284;DHT22;10301;50.832;4.080;2022-08-05T04:43:45;20.70;99.90
20284;DHT22;10301;50.832;4.080;2022-08-05T04:46:11;21.00;99.90
20284;DHT22;10301;50.832;4.080;2022-08-05T04:48:37;21.00;99.90
20284;DHT22;10301;50.832;4.080;2022-08-05T04:51:02;20.90;99.90
20284;DHT22;10301;50.832;4.080;2022-08-05T04:53:28;20.80;99.90
20284;DHT22;10301;50.832;4.080;2022-08-05T04:55:53;20.70;99.90
20284;DHT22;10301;50.832;4.080;2022-08-05T04:58:19;20.60;99.90
20284;DHT22;10301;50.832;4.080;2022-08-05T05:00:45;20.60;99.90
20284;DHT22;10301;50.832;4.080;2022-08-05T05:03:10;20.60;99.90
20284;DHT22;10301;50.832;4.080;2022-08-05T05:05:36;20.50;99.90
20284;DHT22;10301;50.832;4.080;2022-08-05T05:08:11;20.40;99.90
20284;DHT22;10301;50.832;4.080;2022-08-05T05:10:42;20.40;99.90
20284;DHT22;10301;50.832;4.080;2022-08-05T05:13:13;20.50;99.90
20284;DHT22;10301;50.832;4.080;2022-08-05T05:15:40;20.70;99.90
20284;DHT22;10301;50.832;4.080;2022-08-05T05:18:06;20.80;99.90
20284;DHT22;10301;50.832;4.080;2022-08-05T05:20:36;20.90;99.90
20284;DHT22;10301;50.832;4.080;2022-08-05T05:23:03;20.80;99.90
20284;DHT22;10301;50.832;4.080;2022-08-05T05:25:29;20.80;99.90
20284;DHT22;10301;50.832;4.080;2022-08-05T05:27:55;20.80;99.90
20284;DHT22;10301;50.832;4.080;2022-08-05T05:30:21;20.90;99.90
20284;DHT22;10301;50.832;4.080;2022-08-05T05:32:47;20.90;99.90
20284;DHT22;10301;50.832;4.080;2022-08-05T05:35:13;21.00;99.90
20284;DHT22;10301;50.832;4.080;2022-08-05T05:37:52;21.10;99.90
20284;DHT22;10301;50.832;4.080;2022-08-05T05:40:20;20.90;99.90
20284;DHT22;10301;50.832;4.080;2022-08-05T05:42:47;21.00;99.90
20284;DHT22;10301;50.832;4.080;2022-08-05T05:45:13;21.00;99.90
20284;DHT22;10301;50.832;4.080;2022-08-05T05:47:39;20.80;99.90
20284;DHT22;10301;50.832;4.080;2022-08-05T05:50:10;20.60;99.90
20284;DHT22;10301;50.832;4.080;2022-08-05T05:52:36;20.80;99.90
20284;DHT22;10301;50.832;4.080;2022-08-05T05:55:04;21.10;99.90
20284;DHT22;10301;50.832;4.080;2022-08-05T05:57:30;21.10;99.90
20284;DHT22;10301;50.832;4.080;2022-08-05T05:59:56;21.00;99.90
20284;DHT22;10301;50.832;4.080;2022-08-05T06:02:21;20.80;99.90
20284;DHT22;10301;50.832;4.080;2022-08-05T06:04:47;20.50;99.90
20284;DHT22;10301;50.832;4.080;2022-08-05T06:07:13;20.60;99.90
20284;DHT22;10301;50.832;4.080;2022-08-05T06:09:39;21.10;99.90
20284;DHT22;10301;50.832;4.080;2022-08-05T06:12:05;21.30;99.90
20284;DHT22;10301;50.832;4.080;2022-08-05T06:14:31;21.00;99.90
20284;DHT22;10301;50.832;4.080;2022-08-05T06:16:57;21.00;99.90
20284;DHT22;10301;50.832;4.080;2022-08-05T06:19:23;21.10;99.90
20284;DHT22;10301;50.832;4.080;2022-08-05T06:21:48;20.90;99.90
20284;DHT22;10301;50.832;4.080;2022-08-05T06:24:14;20.90;99.90
20284;DHT22;10301;50.832;4.080;2022-08-05T06:26:40;20.80;99.90
20284;DHT22;10301;50.832;4.080;2022-08-05T06:29:06;21.00;99.90
20284;DHT22;10301;50.832;4.080;2022-08-05T06:31:32;21.20;99.90
20284;DHT22;10301;50.832;4.080;2022-08-05T06:33:57;21.50;99.90
20284;DHT22;10301;50.832;4.080;2022-08-05T06:36:23;21.80;99.90
20284;DHT22;10301;50.832;4.080;2022-08-05T06:38:49;21.90;99.90
20284;DHT22;10301;50.832;4.080;2022-08-05T06:41:20;21.80;99.90
20284;DHT22;10301;50.832;4.080;2022-08-05T06:43:46;22.10;99.90
20284;DHT22;10301;50.832;4.080;2022-08-05T06:46:11;22.40;99.90
20284;DHT22;10301;50.832;4.080;2022-08-05T06:48:37;22.50;99.90
20284;DHT22;10301;50.832;4.080;2022-08-05T06:51:03;22.80;99.90
20284;DHT22;10301;50.832;4.080;2022-08-05T06:53:29;22.80;99.90
20284;DHT22;10301;50.832;4.080;2022-08-05T06:55:57;22.70;99.90
20284;DHT22;10301;50.832;4.080;2022-08-05T06:58:23;22.80;99.90
20284;DHT22;10301;50.832;4.080;2022-08-05T07:00:48;22.10;99.90
20284;DHT22;10301;50.832;4.080;2022-08-05T07:03:14;21.80;99.90
20284;DHT22;10301;50.832;4.080;2022-08-05T07:05:40;21.60;99.90
20284;DHT22;10301;50.832;4.080;2022-08-05T07:08:05;21.50;99.90
20284;DHT22;10301;50.832;4.080;2022-08-05T07:10:32;21.50;99.90
20284;DHT22;10301;50.832;4.080;2022-08-05T07:12:57;21.60;99.90
20284;DHT22;10301;50.832;4.080;2022-08-05T07:15:41;21.50;99.90
20284;DHT22;10301;50.832;4.080;2022-08-05T07:18:25;21.90;99.90
20284;DHT22;10301;50.832;4.080;2022-08-05T07:20:51;21.80;99.90
20284;DHT22;10301;50.832;4.080;2022-08-05T07:23:16;21.90;99.90
20284;DHT22;10301;50.832;4.080;2022-08-05T07:25:42;21.80;99.90
20284;DHT22;10301;50.832;4.080;2022-08-05T07:28:08;22.00;99.90
20284;DHT22;10301;50.832;4.080;2022-08-05T07:30:34;21.50;99.90
20284;DHT22;10301;50.832;4.080;2022-08-05T07:33:02;21.30;99.90
20284;DHT22;10301;50.832;4.080;2022-08-05T07:35:28;21.40;99.90
20284;DHT22;10301;50.832;4.080;2022-08-05T07:37:54;21.40;99.90
20284;DHT22;10301;50.832;4.080;2022-08-05T07:40:20;21.10;99.90
20284;DHT22;10301;50.832;4.080;2022-08-05T07:42:47;21.30;99.90
20284;DHT22;10301;50.832;4.080;2022-08-05T07:45:13;21.50;99.90
20284;DHT22;10301;50.832;4.080;2022-08-05T07:47:38;21.60;99.90
20284;DHT22;10301;50.832;4.080;2022-08-05T07:50:04;21.60;99.90
20284;DHT22;10301;50.832;4.080;2022-08-05T07:52:30;22.10;99.90
20284;DHT22;10301;50.832;4.080;2022-08-05T07:54:56;22.30;99.90
20284;DHT22;10301;50.832;4.080;2022-08-05T07:57:22;22.80;99.90
20284;DHT22;10301;50.832;4.080;2022-08-05T07:59:48;23.20;99.90
20284;DHT22;10301;50.832;4.080;2022-08-05T08:02:13;23.70;99.90
20284;DHT22;10301;50.832;4.080;2022-08-05T08:04:39;24.10;99.90
20284;DHT22;10301;50.832;4.080;2022-08-05T08:07:05;23.90;99.90
20284;DHT22;10301;50.832;4.080;2022-08-05T08:09:30;23.50;99.90
20284;DHT22;10301;50.832;4.080;2022-08-05T08:11:56;22.40;99.90
20284;DHT22;10301;50.832;4.080;2022-08-05T08:14:21;21.90;99.90
20284;DHT22;10301;50.832;4.080;2022-08-05T08:16:47;22.00;99.90
20284;DHT22;10301;50.832;4.080;2022-08-05T08:19:13;22.30;99.90
20284;DHT22;10301;50.832;4.080;2022-08-05T08:21:38;22.70;99.90
20284;DHT22;10301;50.832;4.080;2022-08-05T08:24:04;23.10;99.90
20284;DHT22;10301;50.832;4.080;2022-08-05T08:26:30;23.10;99.90
20284;DHT22;10301;50.832;4.080;2022-08-05T08:29:00;23.20;99.90
20284;DHT22;10301;50.832;4.080;2022-08-05T08:31:26;22.70;99.90
20284;DHT22;10301;50.832;4.080;2022-08-05T08:33:51;22.70;99.90
20284;DHT22;10301;50.832;4.080;2022-08-05T08:36:17;22.70;99.90
20284;DHT22;10301;50.832;4.080;2022-08-05T08:38:43;22.60;99.90
20284;DHT22;10301;50.832;4.080;2022-08-05T08:41:09;23.30;99.90
20284;DHT22;10301;50.832;4.080;2022-08-05T08:43:39;23.80;99.90
20284;DHT22;10301;50.832;4.080;2022-08-05T08:46:05;23.80;99.90
20284;DHT22;10301;50.832;4.080;2022-08-05T08:48:31;23.70;99.90
20284;DHT22;10301;50.832;4.080;2022-08-05T08:50:59;23.20;99.90
20284;DHT22;10301;50.832;4.080;2022-08-05T08:53:26;23.10;99.90
20284;DHT22;10301;50.832;4.080;2022-08-05T08:55:53;23.10;99.90
20284;DHT22;10301;50.832;4.080;2022-08-05T08:58:19;23.00;99.90
20284;DHT22;10301;50.832;4.080;2022-08-05T09:00:46;23.10;99.90
20284;DHT22;10301;50.832;4.080;2022-08-05T09:03:13;23.10;99.90
20284;DHT22;10301;50.832;4.080;2022-08-05T09:05:38;23.90;99.90
20284;DHT22;10301;50.832;4.080;2022-08-05T09:08:04;24.20;99.90
20284;DHT22;10301;50.832;4.080;2022-08-05T09:10:30;24.20;99.90
20284;DHT22;10301;50.832;4.080;2022-08-05T09:12:56;24.40;99.90
20284;DHT22;10301;50.832;4.080;2022-08-05T09:15:22;24.50;99.90
20284;DHT22;10301;50.832;4.080;2022-08-05T09:17:48;24.60;99.90
20284;DHT22;10301;50.832;4.080;2022-08-05T09:20:14;24.10;99.90
20284;DHT22;10301;50.832;4.080;2022-08-05T09:23:03;24.00;99.90
20284;DHT22;10301;50.832;4.080;2022-08-05T09:25:30;23.90;99.90
20284;DHT22;10301;50.832;4.080;2022-08-05T09:27:55;23.40;99.90
20284;DHT22;10301;50.832;4.080;2022-08-05T09:30:21;23.50;99.90
20284;DHT22;10301;50.832;4.080;2022-08-05T09:32:47;23.90;99.90
20284;DHT22;10301;50.832;4.080;2022-08-05T09:35:15;24.30;99.90
20284;DHT22;10301;50.832;4.080;2022-08-05T09:37:55;24.80;99.90
20284;DHT22;10301;50.832;4.080;2022-08-05T09:40:39;25.10;99.90
20284;DHT22;10301;50.832;4.080;2022-08-05T09:43:25;25.20;99.90
20284;DHT22;10301;50.832;4.080;2022-08-05T09:45:51;24.80;99.90
20284;DHT22;10301;50.832;4.080;2022-08-05T09:48:25;24.50;99.90
20284;DHT22;10301;50.832;4.080;2022-08-05T09:50:55;24.50;99.90
20284;DHT22;10301;50.832;4.080;2022-08-05T09:53:21;24.60;99.90
20284;DHT22;10301;50.832;4.080;2022-08-05T09:55:51;24.50;99.90
20284;DHT22;10301;50.832;4.080;2022-08-05T09:58:17;24.30;99.90
20284;DHT22;10301;50.832;4.080;2022-08-05T10:00:59;24.90;99.90
20284;DHT22;10301;50.832;4.080;2022-08-05T10:03:25;25.10;99.90
20284;DHT22;10301;50.832;4.080;2022-08-05T10:06:01;25.20;99.90
20284;DHT22;10301;50.832;4.080;2022-08-05T10:08:27;25.30;99.90
20284;DHT22;10301;50.832;4.080;2022-08-05T10:10:53;25.00;99.90
20284;DHT22;10301;50.832;4.080;2022-08-05T10:13:27;24.80;99.90
20284;DHT22;10301;50.832;4.080;2022-08-05T10:15:53;24.70;99.90
20284;DHT22;10301;50.832;4.080;2022-08-05T10:18:20;24.50;99.90
20284;DHT22;10301;50.832;4.080;2022-08-05T10:21:08;24.10;99.90
20284;DHT22;10301;50.832;4.080;2022-08-05T10:23:37;23.90;99.90
20284;DHT22;10301;50.832;4.080;2022-08-05T10:26:07;24.40;99.90
20284;DHT22;10301;50.832;4.080;2022-08-05T10:28:34;24.70;99.90
20284;DHT22;10301;50.832;4.080;2022-08-05T10:31:00;24.80;99.90
20284;DHT22;10301;50.832;4.080;2022-08-05T10:33:28;25.30;99.90
20284;DHT22;10301;50.832;4.080;2022-08-05T10:35:57;25.20;99.90
20284;DHT22;10301;50.832;4.080;2022-08-05T10:38:25;24.80;99.90
20284;DHT22;10301;50.832;4.080;2022-08-05T10:44:04;24.90;99.90
20284;DHT22;10301;50.832;4.080;2022-08-05T10:46:46;25.00;99.90
20284;DHT22;10301;50.832;4.080;2022-08-05T10:49:12;24.60;99.90
20284;DHT22;10301;50.832;4.080;2022-08-05T10:51:45;24.60;99.90
20284;DHT22;10301;50.832;4.080;2022-08-05T10:54:13;24.70;99.90
20284;DHT22;10301;50.832;4.080;2022-08-05T10:56:47;24.80;99.90
20284;DHT22;10301;50.832;4.080;2022-08-05T10:59:30;25.00;99.90
20284;DHT22;10301;50.832;4.080;2022-08-05T11:02:10;25.20;99.90
20284;DHT22;10301;50.832;4.080;2022-08-05T11:07:09;25.40;99.90
20284;DHT22;10301;50.832;4.080;2022-08-05T11:09:53;25.60;99.90
20284;DHT22;10301;50.832;4.080;2022-08-05T11:17:33;25.00;99.90
20284;DHT22;10301;50.832;4.080;2022-08-05T11:20:03;24.40;99.90
20284;DHT22;10301;50.832;4.080;2022-08-05T11:22:42;24.30;99.90
20284;DHT22;10301;50.832;4.080;2022-08-05T11:25:28;24.30;99.90
20284;DHT22;10301;50.832;4.080;2022-08-05T11:27:55;24.80;99.90
20284;DHT22;10301;50.832;4.080;2022-08-05T11:30:21;25.20;99.90
20284;DHT22;10301;50.832;4.080;2022-08-05T11:32:47;25.30;99.90
20284;DHT22;10301;50.832;4.080;2022-08-05T11:38:16;24.90;99.90
20284;DHT22;10301;50.832;4.080;2022-08-05T11:40:56;24.80;99.90
20284;DHT22;10301;50.832;4.080;2022-08-05T11:43:22;24.50;99.90
20284;DHT22;10301;50.832;4.080;2022-08-05T11:45:48;24.60;99.90
20284;DHT22;10301;50.832;4.080;2022-08-05T11:48:14;24.50;99.90
20284;DHT22;10301;50.832;4.080;2022-08-05T11:50:39;24.80;99.90
20284;DHT22;10301;50.832;4.080;2022-08-05T11:53:07;25.00;99.90
20284;DHT22;10301;50.832;4.080;2022-08-05T11:55:33;24.70;99.90
20284;DHT22;10301;50.832;4.080;2022-08-05T11:57:58;24.40;99.90
20284;DHT22;10301;50.832;4.080;2022-08-05T12:00:28;24.50;99.90
20284;DHT22;10301;50.832;4.080;2022-08-05T12:02:55;24.70;99.90
20284;DHT22;10301;50.832;4.080;2022-08-05T12:05:28;24.80;99.90
20284;DHT22;10301;50.832;4.080;2022-08-05T12:07:56;24.50;99.90
20284;DHT22;10301;50.832;4.080;2022-08-05T12:10:25;24.50;99.90
20284;DHT22;10301;50.832;4.080;2022-08-05T12:12:52;24.80;99.90
20284;DHT22;10301;50.832;4.080;2022-08-05T12:15:21;24.70;99.90
20284;DHT22;10301;50.832;4.080;2022-08-05T12:17:46;24.70;99.90
20284;DHT22;10301;50.832;4.080;2022-08-05T12:20:12;24.60;99.90
20284;DHT22;10301;50.832;4.080;2022-08-05T12:22:38;24.40;99.90
20284;DHT22;10301;50.832;4.080;2022-08-05T12:25:04;24.60;99.90
20284;DHT22;10301;50.832;4.080;2022-08-05T12:27:30;24.80;99.90
20284;DHT22;10301;50.832;4.080;2022-08-05T12:30:02;24.60;99.90
20284;DHT22;10301;50.832;4.080;2022-08-05T12:32:31;24.80;99.90
20284;DHT22;10301;50.832;4.080;2022-08-05T12:34:57;25.10;99.90
20284;DHT22;10301;50.832;4.080;2022-08-05T12:37:23;25.20;99.90
20284;DHT22;10301;50.832;4.080;2022-08-05T12:39:49;25.10;99.90
20284;DHT22;10301;50.832;4.080;2022-08-05T12:42:18;25.00;99.90
20284;DHT22;10301;50.832;4.080;2022-08-05T12:44:44;25.20;99.90
20284;DHT22;10301;50.832;4.080;2022-08-05T12:47:11;24.70;99.90
20284;DHT22;10301;50.832;4.080;2022-08-05T12:49:39;24.70;99.90
20284;DHT22;10301;50.832;4.080;2022-08-05T12:52:11;24.40;99.90
20284;DHT22;10301;50.832;4.080;2022-08-05T12:54:39;24.70;99.90
20284;DHT22;10301;50.832;4.080;2022-08-05T12:57:06;24.80;99.90
20284;DHT22;10301;50.832;4.080;2022-08-05T12:59:53;25.10;99.90
20284;DHT22;10301;50.832;4.080;2022-08-05T13:02:26;25.50;99.90
20284;DHT22;10301;50.832;4.080;2022-08-05T13:04:53;25.80;99.90
20284;DHT22;10301;50.832;4.080;2022-08-05T13:07:23;25.80;99.90
20284;DHT22;10301;50.832;4.080;2022-08-05T13:09:55;25.60;99.90
20284;DHT22;10301;50.832;4.080;2022-08-05T13:12:23;25.70;99.90
20284;DHT22;10301;50.832;4.080;2022-08-05T13:14:57;25.70;99.90
20284;DHT22;10301;50.832;4.080;2022-08-05T13:17:27;25.60;99.90
20284;DHT22;10301;50.832;4.080;2022-08-05T13:20:15;25.30;99.90
20284;DHT22;10301;50.832;4.080;2022-08-05T13:22:46;25.10;99.90
20284;DHT22;10301;50.832;4.080;2022-08-05T13:25:14;25.40;99.90
20284;DHT22;10301;50.832;4.080;2022-08-05T13:27:45;25.70;99.90
20284;DHT22;10301;50.832;4.080;2022-08-05T13:30:13;26.10;99.90
20284;DHT22;10301;50.832;4.080;2022-08-05T13:32:39;26.30;99.90
20284;DHT22;10301;50.832;4.080;2022-08-05T13:35:05;26.10;99.90
20284;DHT22;10301;50.832;4.080;2022-08-05T13:37:31;25.60;99.90
20284;DHT22;10301;50.832;4.080;2022-08-05T13:39:57;25.60;99.90
20284;DHT22;10301;50.832;4.080;2022-08-05T13:42:23;25.40;99.90
20284;DHT22;10301;50.832;4.080;2022-08-05T13:44:53;25.30;99.90
20284;DHT22;10301;50.832;4.080;2022-08-05T13:47:20;25.20;99.90
20284;DHT22;10301;50.832;4.080;2022-08-05T13:49:46;24.90;99.90
20284;DHT22;10301;50.832;4.080;2022-08-05T13:52:16;25.20;99.90
20284;DHT22;10301;50.832;4.080;2022-08-05T13:54:43;25.30;99.90
20284;DHT22;10301;50.832;4.080;2022-08-05T13:57:09;25.50;99.90
20284;DHT22;10301;50.832;4.080;2022-08-05T13:59:36;25.40;99.90
20284;DHT22;10301;50.832;4.080;2022-08-05T14:02:03;25.10;99.90
20284;DHT22;10301;50.832;4.080;2022-08-05T14:04:32;24.80;99.90
20284;DHT22;10301;50.832;4.080;2022-08-05T14:07:24;24.80;99.90
20284;DHT22;10301;50.832;4.080;2022-08-05T14:09:50;24.50;99.90
20284;DHT22;10301;50.832;4.080;2022-08-05T14:12:15;24.50;99.90
20284;DHT22;10301;50.832;4.080;2022-08-05T14:14:41;24.50;99.90
20284;DHT22;10301;50.832;4.080;2022-08-05T14:17:07;24.30;99.90
20284;DHT22;10301;50.832;4.080;2022-08-05T14:19:32;24.30;99.90
20284;DHT22;10301;50.832;4.080;2022-08-05T14:21:58;24.50;99.90
20284;DHT22;10301;50.832;4.080;2022-08-05T14:24:24;24.50;99.90
20284;DHT22;10301;50.832;4.080;2022-08-05T14:26:49;24.40;99.90
20284;DHT22;10301;50.832;4.080;2022-08-05T14:29:15;24.50;99.90
20284;DHT22;10301;50.832;4.080;2022-08-05T14:31:41;24.80;99.90
20284;DHT22;10301;50.832;4.080;2022-08-05T14:34:06;24.80;99.90
20284;DHT22;10301;50.832;4.080;2022-08-05T14:36:32;25.00;99.90
20284;DHT22;10301;50.832;4.080;2022-08-05T14:38:58;24.80;99.90
20284;DHT22;10301;50.832;4.080;2022-08-05T14:41:23;24.60;99.90
20284;DHT22;10301;50.832;4.080;2022-08-05T14:43:49;24.60;99.90
20284;DHT22;10301;50.832;4.080;2022-08-05T14:46:15;24.80;99.90
20284;DHT22;10301;50.832;4.080;2022-08-05T14:48:41;24.90;99.90
20284;DHT22;10301;50.832;4.080;2022-08-05T14:51:07;24.40;99.90
20284;DHT22;10301;50.832;4.080;2022-08-05T14:53:33;24.50;99.90
20284;DHT22;10301;50.832;4.080;2022-08-05T14:55:58;24.40;99.90
20284;DHT22;10301;50.832;4.080;2022-08-05T14:58:24;24.50;99.90
20284;DHT22;10301;50.832;4.080;2022-08-05T15:00:50;24.50;99.90
20284;DHT22;10301;50.832;4.080;2022-08-05T15:03:15;24.60;99.90
20284;DHT22;10301;50.832;4.080;2022-08-05T15:05:41;24.80;99.90
20284;DHT22;10301;50.832;4.080;2022-08-05T15:08:07;25.00;99.90
20284;DHT22;10301;50.832;4.080;2022-08-05T15:10:32;25.00;99.90
20284;DHT22;10301;50.832;4.080;2022-08-05T15:12:58;25.00;99.90
20284;DHT22;10301;50.832;4.080;2022-08-05T15:15:25;25.00;99.80
20284;DHT22;10301;50.832;4.080;2022-08-05T15:17:51;24.80;99.90
20284;DHT22;10301;50.832;4.080;2022-08-05T15:20:17;24.40;99.90
20284;DHT22;10301;50.832;4.080;2022-08-05T15:22:43;24.20;99.90
20284;DHT22;10301;50.832;4.080;2022-08-05T15:25:09;23.90;99.90
20284;DHT22;10301;50.832;4.080;2022-08-05T15:27:35;24.40;99.90
20284;DHT22;10301;50.832;4.080;2022-08-05T15:30:00;24.50;99.90
20284;DHT22;10301;50.832;4.080;2022-08-05T15:32:26;24.30;99.90
20284;DHT22;10301;50.832;4.080;2022-08-05T15:34:52;24.20;99.90
20284;DHT22;10301;50.832;4.080;2022-08-05T15:37:17;24.70;99.90
20284;DHT22;10301;50.832;4.080;2022-08-05T15:39:43;24.90;99.90
20284;DHT22;10301;50.832;4.080;2022-08-05T15:42:09;24.60;99.90
20284;DHT22;10301;50.832;4.080;2022-08-05T15:44:41;24.40;99.90
20284;DHT22;10301;50.832;4.080;2022-08-05T15:47:07;24.30;99.90
20284;DHT22;10301;50.832;4.080;2022-08-05T15:49:33;24.10;99.90
20284;DHT22;10301;50.832;4.080;2022-08-05T15:51:59;23.80;99.90
20284;DHT22;10301;50.832;4.080;2022-08-05T15:54:25;23.70;99.90
20284;DHT22;10301;50.832;4.080;2022-08-05T15:56:51;23.50;99.90
20284;DHT22;10301;50.832;4.080;2022-08-05T15:59:17;23.60;99.90
20284;DHT22;10301;50.832;4.080;2022-08-05T16:01:42;23.80;99.90
20284;DHT22;10301;50.832;4.080;2022-08-05T16:04:08;23.80;99.90